Historyczne dane pomiarowe

Dodano dane terminowe – wersja testowa.

Dane z okresu 1951-2019

Wersja bazy: 1.34 [2019-03-16, lista zmian], aktualizacja planowana na 2019-04-15

Dane meteo z obszaru Polski uzyskane na podstawie danych udostępnionych przez Instytut Meteorologii i Gospodarki Wodnej – Państwowy Instytut Badawczy.

 

Wybierz Datę:    

       

TemperaturaWilgotnośćWiatrCiśnienieOpadyŚniegCzas trwania zjawisk
 Stacja t tx tn tng RH VA  wxwx mslp ppp RRR   cm mm wxwxwxwxwxwxwx
1987-08-14 8.4 17.0 0.6- 84.5- 7.7 1.7---- 0.2------------
1987-08-13 10.0 15.9 3.3- 74.5- 7.0 1.0---- 0.0------------
1987-08-12 9.8 15.7 2.0- 74.0- 4.7 1.0---- 0.0------------
1987-08-11 12.4 16.3 10.1- 73.5- 7.0 2.0---- 0.1------------
1987-08-10 14.5 17.0 12.4- 74.3- 6.0 3.0---- 3.8------------
1987-08-09 12.0 22.0 1.7- 70.8- 5.0 1.0---- 0.0------------
1987-08-08 13.4 18.3 6.8- 66.8- 2.3 1.0---- 0.0------------
1987-08-07 8.9 12.5 0.2- 78.0- 6.3 0.0---- 0.0------------
1987-08-06 8.7 13.0 6.6- 82.0- 6.3 3.7---- 4.0------------
1987-08-05 10.3 15.0 7.1- 82.8- 7.3 0.0---- 0.9------------
1987-08-04 13.4 17.5 9.7- 83.0- 7.3 2.7---- 7.0------------
1987-08-03 13.9 18.5 11.1- 71.8- 4.7 2.0---- 0.0------------
1987-08-02 13.3 17.1 9.9- 72.3- 6.3 2.3---- 7.7------------
1987-08-01 12.7 19.6 4.9- 83.0- 7.0 1.3---- 0.9------------
1987-07-31 13.9 18.0 10.8- 84.5- 8.0 2.7---- 1.3------------
1987-07-30 16.0 22.0 10.1- 74.0- 2.3 1.0---- 0.0------------
1987-07-29 12.7 17.5 8.0- 69.3- 6.3 1.0---- 0.1------------
1987-07-28 12.1 13.8 10.8- 79.3- 6.7 2.3---- 2.4------------
1987-07-27 11.2 15.5 6.8- 69.0- 6.0 3.0---- 0.6------------
1987-07-26 12.9 17.5 10.2- 88.5- 8.0 0.3---- 11.5------------
1987-07-25 16.9 22.5 13.5- 77.3- 6.3 1.0---- 0.2------------
1987-07-24 19.1 27.2 13.5- 78.0- 3.0 0.3---- 0.3------------
1987-07-23 17.2 26.5 8.0- 76.0- 6.3 1.0---- 3.7------------
1987-07-22 18.6 24.5 13.0- 72.8- 3.7 1.7---- 0.0------------
1987-07-21 20.2 26.6 12.5- 72.5- 3.3 2.7---- 0.0------------
1987-07-20 20.5 25.9 16.4- 75.0- 5.7 1.7---- 0.0------------
1987-07-19 21.0 29.0 13.3- 76.5- 3.3 2.3---- 2.1------------
1987-07-18 21.5 29.0 11.1- 73.8- 2.3 0.7---- 0.0------------
1987-07-17 20.3 28.0 12.4- 69.8- 3.7 2.0---- 0.0------------
1987-07-16 17.1 26.2 8.1- 81.3- 5.3 1.3---- 1.5------------
1987-07-15 14.7 24.3 4.5- 75.0- 1.0 1.3---- 0.0------------
1987-07-14 16.0 20.2 12.0- 67.8- 1.3 1.7---- 0.0------------
1987-07-13 17.3 23.5 14.0- 78.3- 5.7 1.0---- 0.0------------
1987-07-12 17.1 26.1 6.8- 70.5- 3.7 3.0---- 4.4------------
1987-07-11 13.7 22.5 3.7- 74.0- 0.0 1.0---- 0.0------------
1987-07-10 13.1 18.5 6.5- 72.0- 2.7 1.0---- 0.1------------
1987-07-09 15.0 20.6 12.4- 83.8- 8.0 1.7---- 10.0------------
1987-07-08 17.6 26.4 5.4- 64.5- 0.0 2.3---- 0.0------------
1987-07-07 15.6 26.0 2.7- 69.5- 0.0 0.7---- 0.0------------
1987-07-06 15.0 21.0 5.3- 68.0- 0.0 2.0---- 0.0------------
1987-07-05 13.6 18.0 12.3- 86.0- 6.3 2.0---- 0.1------------
1987-07-04 17.6 22.0 12.5- 76.5- 4.7 1.7---- 0.1------------
1987-07-03 16.9 20.8 14.5- 81.8- 7.7 2.0---- 0.0------------
1987-07-02 17.8 24.3 12.5- 88.8- 7.7 1.7---- 0.0------------
1987-07-01 22.0 28.8 12.9- 75.3- 2.0 1.0---- 0.0------------
1987-06-30 19.9 29.0 12.1- 76.3- 4.7 1.0---- 0.0------------
1987-06-29 18.5 24.5 11.8- 79.8- 5.0 1.3---- 0.0------------
1987-06-28 17.7 24.5 11.8- 71.5- 4.7 0.7---- 0.1------------
1987-06-27 15.8 21.5 12.1- 88.3- 7.7 0.0---- 1.7------------
1987-06-26 12.9 21.5 3.2- 75.3- 3.0 2.3---- 3.8------------
1987-06-25 13.6 16.6 12.4- 78.0- 5.0 2.7---- 0.0------------
1987-06-24 14.3 19.0 9.3- 72.5- 7.3 2.3---- 5.9------------
1987-06-23 14.8 19.0 12.1- 76.5- 7.3 0.7---- 0.0------------
1987-06-22 13.8 19.4 10.6- 86.0- 7.7 1.7---- 1.0------------
1987-06-21 12.7 20.0 5.6- 81.0- 4.7 0.7---- 3.7------------
1987-06-20 11.5 19.5 1.7- 73.0- 4.7 0.7---- 0.0------------
1987-06-19 10.5 17.0 4.0- 69.5- 2.0 1.7---- 0.0------------
1987-06-18 6.7 14.5 3.0- 87.3- 8.0 2.7---- 2.2------------
1987-06-17 8.2 12.0 5.6- 82.3- 7.3 0.0---- 1.6------------
1987-06-16 13.3 24.7 9.8- 77.3- 7.0 3.7---- 7.9------------
537.8 ms

 

Źródłem pochodzenia danych jest Instytut Meteorologii i Gospodarki Wodnej – Państwowy Instytut Badawczy. Dane Instytutu Meteorologii i Gospodarki Wodnej – Państwowego Instytutu Badawczego zostały przetworzone.

Dane źródłowe można odnaleźć na stronie https://dane.imgw.pl